createdAt,value
2017-06-11T00:00:59.634Z,17.46
2017-06-11T00:01:59.622Z,17.27
2017-06-11T00:02:59.593Z,17.35
2017-06-11T00:03:59.580Z,17.39
2017-06-11T00:04:59.553Z,17.4
2017-06-11T00:05:59.527Z,17.45
2017-06-11T00:06:59.523Z,17.39
2017-06-11T00:07:59.497Z,17.39
2017-06-11T00:08:59.174Z,17.4
2017-06-11T00:09:59.451Z,17.35
2017-06-11T00:10:59.439Z,17.4
2017-06-11T00:11:59.413Z,17.43
2017-06-11T00:12:59.391Z,17.32
2017-06-11T00:13:59.369Z,17.35
2017-06-11T00:14:59.355Z,17.33
2017-06-11T00:15:59.331Z,17.27
2017-06-11T00:16:59.318Z,17.38
2017-06-11T00:17:59.294Z,17.38
2017-06-11T00:18:59.270Z,17.38
2017-06-11T00:19:59.258Z,17.36
2017-06-11T00:20:59.280Z,17.28
2017-06-11T00:21:59.213Z,17.32
2017-06-11T00:22:59.195Z,17.28
2017-06-11T00:23:59.172Z,17.28
2017-06-11T00:24:59.158Z,17.35
2017-06-11T00:25:59.129Z,17.3
2017-06-11T00:26:59.122Z,17.32
2017-06-11T00:27:59.141Z,17.25
2017-06-11T00:28:59.067Z,17.17
2017-06-11T00:29:59.051Z,17.3
2017-06-11T00:30:59.029Z,17.25
2017-06-11T00:31:59.021Z,17.17
2017-06-11T00:32:58.994Z,17.15
2017-06-11T00:33:58.976Z,17.21
2017-06-11T00:34:58.952Z,17.1
2017-06-11T00:35:58.930Z,17.14
2017-06-11T00:36:58.906Z,17.14
2017-06-11T00:37:58.893Z,17.1
2017-06-11T00:38:59.151Z,17.15
2017-06-11T00:39:58.871Z,17.07
2017-06-11T00:40:58.835Z,17.05
2017-06-11T00:41:58.816Z,17
2017-06-11T00:42:58.787Z,17.02
2017-06-11T00:43:58.770Z,17.03
2017-06-11T00:44:58.751Z,17.03
2017-06-11T00:45:58.724Z,17.02
2017-06-11T00:46:58.709Z,16.99
2017-06-11T00:47:58.742Z,17.03
2017-06-11T00:48:58.675Z,17
2017-06-11T00:49:58.654Z,16.99
2017-06-11T00:50:58.632Z,16.9
2017-06-11T00:51:58.609Z,16.92
2017-06-11T00:52:58.588Z,16.88
2017-06-11T00:53:58.565Z,16.9
2017-06-11T00:54:58.552Z,16.9
2017-06-11T00:55:58.524Z,16.91
2017-06-11T00:56:58.755Z,16.82
2017-06-11T00:57:58.492Z,16.85
2017-06-11T00:58:58.465Z,16.9
2017-06-11T00:59:58.456Z,16.85
2017-06-11T01:00:58.420Z,16.9
2017-06-11T01:01:58.409Z,16.9
2017-06-11T01:02:58.385Z,16.78
2017-06-11T01:03:58.415Z,16.85
2017-06-11T01:04:58.346Z,16.87
2017-06-11T01:05:58.320Z,16.78
2017-06-11T01:06:58.311Z,16.75
2017-06-11T01:07:58.282Z,16.78
2017-06-11T01:08:58.267Z,16.81
2017-06-11T01:09:58.250Z,16.73
2017-06-11T01:10:57.922Z,16.72
2017-06-11T01:11:58.204Z,16.63
2017-06-11T01:12:58.192Z,16.7
2017-06-11T01:13:58.166Z,16.69
2017-06-11T01:14:58.155Z,16.66
2017-06-11T01:15:58.118Z,16.63
2017-06-11T01:16:58.303Z,16.67
2017-06-11T01:17:58.074Z,16.66
2017-06-11T01:18:58.107Z,16.62
2017-06-11T01:19:58.041Z,16.65
2017-06-11T01:20:58.020Z,16.6
2017-06-11T01:21:58.001Z,16.57
2017-06-11T01:22:57.982Z,16.59
2017-06-11T01:23:57.960Z,16.52
2017-06-11T01:24:57.936Z,16.42
2017-06-11T01:25:57.923Z,16.51
2017-06-11T01:26:57.898Z,16.57
2017-06-11T01:27:57.612Z,16.4
2017-06-11T01:28:57.862Z,16.42
2017-06-11T01:29:57.537Z,16.5
2017-06-11T01:30:57.818Z,16.47
2017-06-11T01:31:57.817Z,16.5
2017-06-11T01:32:57.471Z,16.51
2017-06-11T01:33:57.760Z,16.5
2017-06-11T01:34:57.737Z,16.48
2017-06-11T01:35:57.718Z,16.54
2017-06-11T01:36:57.695Z,16.5
2017-06-11T01:37:57.677Z,16.42
2017-06-11T01:38:57.656Z,16.47
2017-06-11T01:39:57.637Z,16.41
2017-06-11T01:40:57.613Z,16.34
2017-06-11T01:41:57.588Z,16.44
2017-06-11T01:42:57.575Z,16.42
2017-06-11T01:43:57.556Z,16.36
2017-06-11T01:44:57.531Z,16.47
2017-06-11T01:45:57.508Z,16.45
2017-06-11T01:46:57.494Z,16.45
2017-06-11T01:47:57.481Z,16.5
2017-06-11T01:48:57.452Z,16.44
2017-06-11T01:49:57.429Z,16.47
2017-06-11T01:50:57.413Z,16.59
2017-06-11T01:51:57.396Z,16.44
2017-06-11T01:52:57.366Z,16.57
2017-06-11T01:53:57.354Z,16.48
2017-06-11T01:54:57.026Z,16.45
2017-06-11T01:55:57.318Z,16.59
2017-06-11T01:56:57.298Z,16.6
2017-06-11T01:57:57.277Z,16.6
2017-06-11T01:58:57.247Z,16.62
2017-06-11T01:59:57.228Z,16.66
2017-06-11T02:00:57.210Z,16.66
2017-06-11T02:01:57.195Z,16.67
2017-06-11T02:02:57.166Z,16.67
2017-06-11T02:03:57.148Z,16.69
2017-06-11T02:04:57.126Z,16.7
2017-06-11T02:05:57.115Z,16.78
2017-06-11T02:06:57.136Z,16.73
2017-06-11T02:07:57.069Z,16.69
2017-06-11T02:08:57.049Z,16.77
2017-06-11T02:09:57.023Z,16.73
2017-06-11T02:10:57.005Z,16.72
2017-06-11T02:11:56.990Z,16.72
2017-06-11T02:12:56.664Z,16.7
2017-06-11T02:13:56.940Z,16.67
2017-06-11T02:14:56.922Z,16.69
2017-06-11T02:15:56.911Z,16.63
2017-06-11T02:16:56.884Z,16.67
2017-06-11T02:17:56.864Z,16.63
2017-06-11T02:18:56.889Z,16.6
2017-06-11T02:19:56.831Z,16.65
2017-06-11T02:20:56.851Z,16.6
2017-06-11T02:21:56.784Z,16.57
2017-06-11T02:22:56.767Z,16.62
2017-06-11T02:23:56.746Z,16.6
2017-06-11T02:24:56.724Z,16.51
2017-06-11T02:25:56.401Z,16.42
2017-06-11T02:26:56.681Z,16.52
2017-06-11T02:27:56.656Z,16.45
2017-06-11T02:28:56.641Z,16.52
2017-06-11T02:29:56.322Z,16.44
2017-06-11T02:30:56.619Z,16.37
2017-06-11T02:31:56.618Z,16.44
2017-06-11T02:32:56.583Z,16.33
2017-06-11T02:33:56.546Z,16.33
2017-06-11T02:34:56.224Z,16.34
2017-06-11T02:35:56.548Z,16.33
2017-06-11T02:36:56.486Z,16.34
2017-06-11T02:37:56.454Z,16.3
2017-06-11T02:38:56.473Z,16.32
2017-06-11T02:39:56.422Z,16.34
2017-06-11T02:40:56.449Z,16.32
2017-06-11T02:41:56.375Z,16.3
2017-06-11T02:42:56.365Z,16.27
2017-06-11T02:43:56.337Z,16.18
2017-06-11T02:44:56.321Z,16.18
2017-06-11T02:45:56.356Z,16.25
2017-06-11T02:46:56.277Z,16.22
2017-06-11T02:47:56.256Z,16.22
2017-06-11T02:48:56.452Z,16.18
2017-06-11T02:49:56.212Z,16.27
2017-06-11T02:50:56.191Z,16.26
2017-06-11T02:51:56.178Z,16.23
2017-06-11T02:52:56.152Z,16.3
2017-06-11T02:53:56.135Z,16.22
2017-06-11T02:54:56.110Z,16.18
2017-06-11T02:55:56.096Z,16.27
2017-06-11T02:56:56.067Z,16.25
2017-06-11T02:57:56.051Z,16.25
2017-06-11T02:58:56.031Z,16.18
2017-06-11T02:59:56.066Z,16.26
2017-06-11T03:00:55.997Z,16.27
2017-06-11T03:01:55.973Z,16.25
2017-06-11T03:02:55.952Z,16.25
2017-06-11T03:03:55.931Z,16.26
2017-06-11T03:04:55.914Z,16.23
2017-06-11T03:05:55.886Z,16.27
2017-06-11T03:06:55.865Z,16.18
2017-06-11T03:07:55.881Z,16.27
2017-06-11T03:08:55.829Z,16.17
2017-06-11T03:09:55.806Z,16.26
2017-06-11T03:10:55.789Z,16.25
2017-06-11T03:11:55.763Z,16.33
2017-06-11T03:12:55.746Z,16.3
2017-06-11T03:13:55.777Z,16.25
2017-06-11T03:14:55.706Z,16.26
2017-06-11T03:15:55.686Z,16.25
2017-06-11T03:16:55.673Z,16.34
2017-06-11T03:17:55.640Z,16.36
2017-06-11T03:18:55.624Z,16.32
2017-06-11T03:19:55.609Z,16.29
2017-06-11T03:20:55.585Z,16.36
2017-06-11T03:21:55.571Z,16.33
2017-06-11T03:22:55.541Z,16.37
2017-06-11T03:23:55.523Z,16.33
2017-06-11T03:24:55.550Z,16.36
2017-06-11T03:25:55.780Z,16.27
2017-06-11T03:26:55.463Z,16.26
2017-06-11T03:27:55.442Z,16.33
2017-06-11T03:28:55.428Z,16.44
2017-06-11T03:29:55.399Z,16.4
2017-06-11T03:30:55.438Z,16.41
2017-06-11T03:31:55.371Z,16.41
2017-06-11T03:32:55.335Z,16.47
2017-06-11T03:33:55.312Z,16.47
2017-06-11T03:34:55.297Z,16.45
2017-06-11T03:35:55.289Z,16.47
2017-06-11T03:36:55.269Z,16.48
2017-06-11T03:37:55.290Z,16.42
2017-06-11T03:38:55.224Z,16.44
2017-06-11T03:39:55.197Z,16.6
2017-06-11T03:40:55.174Z,16.6
2017-06-11T03:41:55.152Z,16.6
2017-06-11T03:42:55.138Z,16.65
2017-06-11T03:43:55.120Z,16.72
2017-06-11T03:44:55.153Z,16.78
2017-06-11T03:45:55.080Z,16.73
2017-06-11T03:46:55.055Z,16.87
2017-06-11T03:47:55.085Z,16.84
2017-06-11T03:48:55.014Z,16.9
2017-06-11T03:49:55.004Z,16.99
2017-06-11T03:50:54.985Z,17.03
2017-06-11T03:51:54.958Z,17.07
2017-06-11T03:52:54.936Z,17.14
2017-06-11T03:53:54.912Z,17.2
2017-06-11T03:54:54.595Z,17.3
2017-06-11T03:55:54.926Z,17.28
2017-06-11T03:56:54.854Z,17.32
2017-06-11T03:57:54.835Z,17.43
2017-06-11T03:58:54.814Z,17.4
2017-06-11T03:59:54.794Z,17.6
2017-06-11T04:00:54.779Z,17.57
2017-06-11T04:01:54.754Z,17.65
2017-06-11T04:02:54.737Z,17.6
2017-06-11T04:03:54.719Z,17.62
2017-06-11T04:04:54.696Z,17.63
2017-06-11T04:05:54.676Z,17.65
2017-06-11T04:06:54.657Z,17.58
2017-06-11T04:07:54.639Z,17.55
2017-06-11T04:08:54.619Z,17.54
2017-06-11T04:09:54.595Z,17.55
2017-06-11T04:10:54.577Z,17.58
2017-06-11T04:11:54.560Z,17.51
2017-06-11T04:12:54.542Z,17.47
2017-06-11T04:13:54.518Z,17.46
2017-06-11T04:14:54.505Z,17.46
2017-06-11T04:15:54.486Z,17.43
2017-06-11T04:16:54.482Z,17.47
2017-06-11T04:17:54.439Z,17.45
2017-06-11T04:18:54.422Z,17.49
2017-06-11T04:19:54.398Z,17.49
2017-06-11T04:20:54.429Z,17.53
2017-06-11T04:21:54.366Z,17.55
2017-06-11T04:22:54.388Z,17.57
2017-06-11T04:23:54.324Z,17.74
2017-06-11T04:24:54.353Z,17.99
2017-06-11T04:25:54.279Z,18.34
2017-06-11T04:26:54.256Z,18.64
2017-06-11T04:27:54.258Z,19.13
2017-06-11T04:28:54.218Z,19.4
2017-06-11T04:29:54.204Z,19.67
2017-06-11T04:30:54.203Z,19.98
2017-06-11T04:31:54.169Z,20.35
2017-06-11T04:32:54.164Z,20.76
2017-06-11T04:33:54.125Z,20.87
2017-06-11T04:34:54.362Z,21.06
2017-06-11T04:35:54.110Z,21.26
2017-06-11T04:36:54.109Z,21.37
2017-06-11T04:37:54.069Z,21.43
2017-06-11T04:38:54.058Z,21.36
2017-06-11T04:39:54.018Z,21.45
2017-06-11T04:40:54.003Z,21.43
2017-06-11T04:41:53.982Z,21.45
2017-06-11T04:42:53.973Z,21.48
2017-06-11T04:43:53.950Z,21.53
2017-06-11T04:44:53.930Z,21.75
2017-06-11T04:45:53.910Z,21.86
2017-06-11T04:46:53.897Z,21.81
2017-06-11T04:47:53.884Z,21.94
2017-06-11T04:48:53.864Z,22.02
2017-06-11T04:49:53.850Z,21.93
2017-06-11T04:50:53.829Z,21.89
2017-06-11T04:51:53.807Z,21.67
2017-06-11T04:52:53.799Z,21.58
2017-06-11T04:53:53.785Z,21.46
2017-06-11T04:54:53.764Z,21.24
2017-06-11T04:55:53.743Z,21.13
2017-06-11T04:56:53.730Z,20.98
2017-06-11T04:57:53.717Z,21
2017-06-11T04:58:53.695Z,20.81
2017-06-11T04:59:53.673Z,20.75
2017-06-11T05:00:53.662Z,20.63
2017-06-11T05:01:53.642Z,20.44
2017-06-11T05:02:53.634Z,20.51
2017-06-11T05:03:53.602Z,20.44
2017-06-11T05:04:53.351Z,20.46
2017-06-11T05:05:53.584Z,20.48
2017-06-11T05:06:53.552Z,20.5
2017-06-11T05:07:53.541Z,20.61
2017-06-11T05:08:53.516Z,20.72
2017-06-11T05:09:53.496Z,20.76
2017-06-11T05:10:53.479Z,20.9
2017-06-11T05:11:53.467Z,21.05
2017-06-11T05:12:53.766Z,21.46
2017-06-11T05:13:53.443Z,21.71
2017-06-11T05:14:53.413Z,21.99
2017-06-11T05:15:53.092Z,22.15
2017-06-11T05:16:53.374Z,22.19
2017-06-11T05:17:53.363Z,22.23
2017-06-11T05:18:53.391Z,22.36
2017-06-11T05:19:53.584Z,22.33
2017-06-11T05:20:53.316Z,22.3
2017-06-11T05:21:52.991Z,22.17
2017-06-11T05:22:53.278Z,22.08
2017-06-11T05:23:53.259Z,21.94
2017-06-11T05:24:53.247Z,21.93
2017-06-11T05:25:53.242Z,21.85
2017-06-11T05:26:53.214Z,21.75
2017-06-11T05:27:53.196Z,21.75
2017-06-11T05:28:53.177Z,21.73
2017-06-11T05:29:53.154Z,21.79
2017-06-11T05:30:53.142Z,21.79
2017-06-11T05:31:53.132Z,21.77
2017-06-11T05:32:53.109Z,21.73
2017-06-11T05:33:53.347Z,21.74
2017-06-11T05:34:53.102Z,21.73
2017-06-11T05:35:53.058Z,21.7
2017-06-11T05:36:53.058Z,21.66
2017-06-11T05:37:53.021Z,21.61
2017-06-11T05:38:53.011Z,21.55
2017-06-11T05:39:53.005Z,21.71
2017-06-11T05:40:52.975Z,21.64
2017-06-11T05:41:52.955Z,21.66
2017-06-11T05:42:52.947Z,21.59
2017-06-11T05:43:52.931Z,21.68
2017-06-11T05:44:52.912Z,21.63
2017-06-11T05:45:53.032Z,21.46
2017-06-11T05:46:52.871Z,21.55
2017-06-11T05:47:52.856Z,21.56
2017-06-11T05:48:53.102Z,21.48
2017-06-11T05:49:52.819Z,21.49
2017-06-11T05:50:52.807Z,21.56
2017-06-11T05:51:52.785Z,21.4
2017-06-11T05:52:52.772Z,21.38
2017-06-11T05:53:52.758Z,21.45
2017-06-11T05:54:52.737Z,21.43
2017-06-11T05:55:52.718Z,21.38
2017-06-11T05:56:52.706Z,21.45
2017-06-11T05:57:52.691Z,21.37
2017-06-11T05:58:52.669Z,21.34
2017-06-11T05:59:52.699Z,21.24
2017-06-11T06:00:52.684Z,21.26
2017-06-11T06:01:52.628Z,21.21
2017-06-11T06:02:52.598Z,21.15
2017-06-11T06:03:52.582Z,21.15
2017-06-11T06:04:52.566Z,21.15
2017-06-11T06:05:52.542Z,21.11
2017-06-11T06:06:52.526Z,21.03
2017-06-11T06:07:52.513Z,21.13
2017-06-11T06:08:52.488Z,21.09
2017-06-11T06:09:52.475Z,21.08
2017-06-11T06:10:52.478Z,21.15
2017-06-11T06:11:52.442Z,21.15
2017-06-11T06:12:52.675Z,21.18
2017-06-11T06:13:52.403Z,21.15
2017-06-11T06:14:52.387Z,21.12
2017-06-11T06:15:52.367Z,21.15
2017-06-11T06:16:52.349Z,21.13
2017-06-11T06:17:52.333Z,21.12
2017-06-11T06:18:52.314Z,21.16
2017-06-11T06:19:52.342Z,21.13
2017-06-11T06:20:52.280Z,21.27
2017-06-11T06:21:51.965Z,21.21
2017-06-11T06:22:52.247Z,21.22
2017-06-11T06:23:52.234Z,21.37
2017-06-11T06:24:52.259Z,21.34
2017-06-11T06:25:52.191Z,21.33
2017-06-11T06:26:52.180Z,21.43
2017-06-11T06:27:52.161Z,21.34
2017-06-11T06:28:52.136Z,21.49
2017-06-11T06:29:52.123Z,21.46
2017-06-11T06:30:52.107Z,21.55
2017-06-11T06:31:52.091Z,21.55
2017-06-11T06:32:52.067Z,21.52
2017-06-11T06:33:52.056Z,21.58
2017-06-11T06:34:52.041Z,21.49
2017-06-11T06:35:52.017Z,21.56
2017-06-11T06:36:52.000Z,21.56
2017-06-11T06:37:51.978Z,21.53
2017-06-11T06:38:51.666Z,21.55
2017-06-11T06:39:51.949Z,21.7
2017-06-11T06:40:51.931Z,21.77
2017-06-11T06:41:51.913Z,21.85
2017-06-11T06:42:51.896Z,21.85
2017-06-11T06:43:51.888Z,21.96
2017-06-11T06:44:51.859Z,22.01
2017-06-11T06:45:51.846Z,22.08
2017-06-11T06:46:51.830Z,22.12
2017-06-11T06:47:51.809Z,22.15
2017-06-11T06:48:51.791Z,22.29
2017-06-11T06:49:51.824Z,22.35
2017-06-11T06:50:51.815Z,22.3
2017-06-11T06:51:51.739Z,22.45
2017-06-11T06:52:51.730Z,22.48
2017-06-11T06:53:51.413Z,22.6
2017-06-11T06:54:51.692Z,22.74
2017-06-11T06:55:51.676Z,22.76
2017-06-11T06:56:51.663Z,22.86
2017-06-11T06:57:51.644Z,22.93
2017-06-11T06:58:51.635Z,22.82
2017-06-11T06:59:51.604Z,23.01
2017-06-11T07:00:51.590Z,23
2017-06-11T07:01:51.580Z,23.03
2017-06-11T07:02:51.566Z,23.09
2017-06-11T07:03:51.539Z,23.11
2017-06-11T07:04:51.534Z,23.26
2017-06-11T07:05:51.511Z,23.29
2017-06-11T07:06:51.496Z,23.34
2017-06-11T07:07:51.475Z,23.5
2017-06-11T07:08:51.463Z,23.52
2017-06-11T07:09:51.447Z,23.69
2017-06-11T07:10:51.438Z,24.02
2017-06-11T07:11:51.416Z,24.37
2017-06-11T07:12:51.444Z,24.89
2017-06-11T07:13:51.390Z,25.27
2017-06-11T07:14:51.372Z,25.72
2017-06-11T07:15:51.353Z,25.97
2017-06-11T07:16:51.379Z,26.08
2017-06-11T07:17:51.338Z,26.16
2017-06-11T07:18:51.620Z,26.23
2017-06-11T07:19:51.300Z,26.31
2017-06-11T07:20:51.338Z,26.39
2017-06-11T07:21:51.283Z,26.49
2017-06-11T07:22:51.264Z,26.59
2017-06-11T07:23:51.254Z,26.6
2017-06-11T07:24:51.240Z,26.59
2017-06-11T07:25:51.237Z,26.76
2017-06-11T07:26:51.223Z,26.72
2017-06-11T07:27:51.205Z,26.6
2017-06-11T07:28:51.189Z,26.61
2017-06-11T07:29:51.429Z,26.53
2017-06-11T07:30:50.862Z,26.53
2017-06-11T07:31:51.154Z,26.53
2017-06-11T07:32:51.143Z,26.86
2017-06-11T07:33:51.131Z,27.28
2017-06-11T07:34:51.124Z,27.33
2017-06-11T07:35:51.107Z,27.33
2017-06-11T07:36:50.791Z,27.49
2017-06-11T07:37:51.078Z,27.53
2017-06-11T07:38:51.077Z,27.66
2017-06-11T07:39:51.055Z,27.77
2017-06-11T07:40:51.048Z,27.91
2017-06-11T07:41:51.031Z,27.84
2017-06-11T07:42:51.019Z,27.88
2017-06-11T07:43:51.016Z,28.01
2017-06-11T07:44:51.007Z,28.32
2017-06-11T07:45:50.988Z,28.87
2017-06-11T07:46:50.977Z,29.3
2017-06-11T07:47:51.018Z,29.82
2017-06-11T07:48:50.957Z,30.28
2017-06-11T07:49:50.939Z,30.75
2017-06-11T07:50:50.940Z,30.7
2017-06-11T07:51:50.627Z,30.81
2017-06-11T07:52:50.931Z,31.1
2017-06-11T07:53:50.918Z,31.28
2017-06-11T07:54:50.653Z,31.5
2017-06-11T07:55:50.906Z,31.52
2017-06-11T07:56:50.596Z,31.34
2017-06-11T07:57:50.886Z,31.28
2017-06-11T07:58:50.885Z,31.15
2017-06-11T07:59:50.895Z,30.86
2017-06-11T08:00:50.859Z,30.72
2017-06-11T08:01:50.856Z,30.88
2017-06-11T08:02:50.843Z,31.07
2017-06-11T08:03:50.861Z,31.05
2017-06-11T08:04:50.829Z,30.96
2017-06-11T08:05:50.822Z,30.96
2017-06-11T08:06:50.873Z,31.1
2017-06-11T08:07:50.813Z,31.09
2017-06-11T08:08:50.808Z,31
2017-06-11T08:09:50.848Z,31.09
2017-06-11T08:10:50.793Z,30.96
2017-06-11T08:11:50.788Z,31.09
2017-06-11T08:12:50.790Z,31.04
2017-06-11T08:13:50.766Z,30.91
2017-06-11T08:14:50.765Z,31.03
2017-06-11T08:15:50.757Z,31.05
2017-06-11T08:16:50.757Z,31.38
2017-06-11T08:17:50.741Z,31.76
2017-06-11T08:18:50.736Z,32.03
2017-06-11T08:19:50.727Z,32.19
2017-06-11T08:20:50.725Z,32.4
2017-06-11T08:21:50.434Z,32.31
2017-06-11T08:22:50.714Z,32.24
2017-06-11T08:23:50.708Z,32.12
2017-06-11T08:24:50.756Z,32.14
2017-06-11T08:25:50.760Z,32.09
2017-06-11T08:26:50.692Z,32.27
2017-06-11T08:27:50.933Z,32.46
2017-06-11T08:28:50.690Z,32.8
2017-06-11T08:29:50.677Z,33
2017-06-11T08:30:50.663Z,33.26
2017-06-11T08:31:50.662Z,33.62
2017-06-11T08:32:50.661Z,33.82
2017-06-11T08:33:50.654Z,34.23
2017-06-11T08:34:50.703Z,34.33
2017-06-11T08:35:50.655Z,34.55
2017-06-11T08:36:50.640Z,34.71
2017-06-11T08:37:50.640Z,34.88
2017-06-11T08:38:50.660Z,35.03
2017-06-11T08:39:50.638Z,35.17
2017-06-11T08:40:50.643Z,35.31
2017-06-11T08:41:50.633Z,35.18
2017-06-11T08:42:50.683Z,35.12
2017-06-11T08:43:50.620Z,34.9
2017-06-11T08:44:50.625Z,34.72
2017-06-11T08:45:50.651Z,34.6
2017-06-11T08:46:50.622Z,34.55
2017-06-11T08:47:50.625Z,34.64
2017-06-11T08:48:50.323Z,34.52
2017-06-11T08:49:50.615Z,34.27
2017-06-11T08:50:50.611Z,34.11
2017-06-11T08:51:50.607Z,34.21
2017-06-11T08:52:50.307Z,34.43
2017-06-11T08:53:50.606Z,34.81
2017-06-11T08:54:50.602Z,35.07
2017-06-11T08:55:50.603Z,35.15
2017-06-11T08:56:50.606Z,35.09
2017-06-11T08:57:50.659Z,35.17
2017-06-11T08:58:50.591Z,35.36
2017-06-11T08:59:50.593Z,35.28
2017-06-11T09:00:50.592Z,35.09
2017-06-11T09:01:50.583Z,34.98
2017-06-11T09:02:50.637Z,35
2017-06-11T09:03:50.625Z,34.95
2017-06-11T09:04:50.576Z,34.83
2017-06-11T09:05:50.579Z,35
2017-06-11T09:06:50.572Z,35.02
2017-06-11T09:07:50.577Z,35.2
2017-06-11T09:08:50.569Z,35.2
2017-06-11T09:09:50.574Z,35.22
2017-06-11T09:10:50.566Z,35.03
2017-06-11T09:11:50.567Z,34.87
2017-06-11T09:12:50.564Z,34.76
2017-06-11T09:13:50.571Z,34.72
2017-06-11T09:14:50.590Z,34.46
2017-06-11T09:15:50.608Z,34.24
2017-06-11T09:16:50.559Z,34.06
2017-06-11T09:17:50.552Z,33.9
2017-06-11T09:18:50.552Z,33.63
2017-06-11T09:19:50.543Z,33.49
2017-06-11T09:20:50.539Z,33.33
2017-06-11T09:21:50.792Z,33.43
2017-06-11T09:22:50.545Z,33.34
2017-06-11T09:23:50.530Z,33.2
2017-06-11T09:24:50.522Z,33.09
2017-06-11T09:25:50.523Z,32.91
2017-06-11T09:26:50.523Z,32.81
2017-06-11T09:27:50.510Z,32.66
2017-06-11T09:28:50.505Z,32.53
2017-06-11T09:29:50.510Z,32.56
2017-06-11T09:30:50.194Z,32.43
2017-06-11T09:31:50.487Z,32.59
2017-06-11T09:32:50.478Z,32.58
2017-06-11T09:33:50.483Z,32.59
2017-06-11T09:34:50.470Z,32.62
2017-06-11T09:35:50.458Z,32.62
2017-06-11T09:36:50.453Z,32.62
2017-06-11T09:37:50.450Z,32.81
2017-06-11T09:38:50.455Z,32.8
2017-06-11T09:39:50.449Z,32.88
2017-06-11T09:40:50.430Z,32.87
2017-06-11T09:41:50.431Z,32.66
2017-06-11T09:42:50.522Z,32.62
2017-06-11T09:43:50.413Z,32.49
2017-06-11T09:44:50.412Z,32.17
2017-06-11T09:45:50.401Z,32.22
2017-06-11T09:46:50.406Z,32.31
2017-06-11T09:47:50.402Z,32.32
2017-06-11T09:48:50.093Z,32.24
2017-06-11T09:49:50.380Z,32.34
2017-06-11T09:50:50.378Z,32.41
2017-06-11T09:51:50.418Z,32.44
2017-06-11T09:52:50.362Z,32.58
2017-06-11T09:53:50.357Z,32.62
2017-06-11T09:54:50.047Z,32.71
2017-06-11T09:55:50.336Z,32.72
2017-06-11T09:56:50.390Z,32.77
2017-06-11T09:57:50.338Z,32.8
2017-06-11T09:58:50.318Z,32.99
2017-06-11T09:59:50.318Z,33.09
2017-06-11T10:00:50.312Z,33.4
2017-06-11T10:01:50.302Z,33.55
2017-06-11T10:02:50.000Z,33.7
2017-06-11T10:03:50.310Z,33.92
2017-06-11T10:04:50.291Z,34.15
2017-06-11T10:05:50.293Z,34.27
2017-06-11T10:06:49.983Z,34.37
2017-06-11T10:07:50.277Z,34.31
2017-06-11T10:08:50.272Z,34.31
2017-06-11T10:09:50.273Z,34.12
2017-06-11T10:10:49.951Z,34.06
2017-06-11T10:11:50.258Z,33.75
2017-06-11T10:12:49.653Z,33.52
2017-06-11T10:13:49.943Z,33.26
2017-06-11T10:14:50.246Z,33.07
2017-06-11T10:15:50.480Z,32.9
2017-06-11T10:16:50.224Z,32.69
2017-06-11T10:17:50.235Z,32.68
2017-06-11T10:18:50.214Z,32.73
2017-06-11T10:19:50.218Z,32.61
2017-06-11T10:20:50.204Z,32.63
2017-06-11T10:21:50.212Z,32.61
2017-06-11T10:22:50.196Z,32.54
2017-06-11T10:23:50.215Z,32.43
2017-06-11T10:24:50.198Z,32.39
2017-06-11T10:25:50.182Z,32.36
2017-06-11T10:26:50.208Z,32.34
2017-06-11T10:27:50.170Z,32.21
2017-06-11T10:28:50.156Z,32.14
2017-06-11T10:29:50.157Z,32.14
2017-06-11T10:30:50.152Z,32.16
2017-06-11T10:31:50.135Z,32.19
2017-06-11T10:32:50.131Z,32.12
2017-06-11T10:33:50.164Z,32.06
2017-06-11T10:34:50.106Z,32.05
2017-06-11T10:35:50.097Z,31.99
2017-06-11T10:36:50.096Z,32.14
2017-06-11T10:37:50.085Z,32.28
2017-06-11T10:38:50.083Z,32.1
2017-06-11T10:39:50.067Z,31.9
2017-06-11T10:40:50.064Z,31.68
2017-06-11T10:41:50.307Z,31.6
2017-06-11T10:42:50.046Z,31.59
2017-06-11T10:43:50.037Z,31.78
2017-06-11T10:44:50.038Z,31.91
2017-06-11T10:45:50.024Z,32.03
2017-06-11T10:46:49.718Z,32.31
2017-06-11T10:47:50.077Z,32.39
2017-06-11T10:48:50.007Z,32.35
2017-06-11T10:49:49.992Z,32.47
2017-06-11T10:50:49.994Z,32.58
2017-06-11T10:51:49.994Z,32.83
2017-06-11T10:52:50.008Z,32.91
2017-06-11T10:53:49.972Z,33.05
2017-06-11T10:54:49.963Z,33.07
2017-06-11T10:55:49.961Z,33.2
2017-06-11T10:56:49.952Z,33.15
2017-06-11T10:57:49.948Z,33.15
2017-06-11T10:58:49.989Z,32.96
2017-06-11T10:59:49.929Z,32.87
2017-06-11T11:00:49.977Z,32.71
2017-06-11T11:01:49.939Z,32.49
2017-06-11T11:02:49.610Z,32.31
2017-06-11T11:03:49.911Z,32.16
2017-06-11T11:04:49.602Z,32.13
2017-06-11T11:05:49.897Z,31.64
2017-06-11T11:06:49.886Z,31.34
2017-06-11T11:07:49.878Z,31.07
2017-06-11T11:08:49.869Z,31.2
2017-06-11T11:09:49.869Z,31.31
2017-06-11T11:10:49.857Z,31.38
2017-06-11T11:11:49.848Z,31.31
2017-06-11T11:12:49.844Z,31.47
2017-06-11T11:13:49.883Z,31.53
2017-06-11T11:14:49.884Z,31.65
2017-06-11T11:15:49.814Z,31.62
2017-06-11T11:16:49.809Z,31.65
2017-06-11T11:17:49.810Z,31.53
2017-06-11T11:18:49.791Z,31.57
2017-06-11T11:19:49.786Z,31.49
2017-06-11T11:20:49.792Z,31.35
2017-06-11T11:21:49.772Z,31.3
2017-06-11T11:22:49.767Z,31.32
2017-06-11T11:24:49.742Z,31.42
2017-06-11T11:25:49.732Z,31.4
2017-06-11T11:26:49.733Z,31.41
2017-06-11T11:27:49.726Z,31.34
2017-06-11T11:28:49.707Z,31.31
2017-06-11T11:29:49.703Z,31.28
2017-06-11T11:30:49.391Z,31.28
2017-06-11T11:31:49.681Z,31.34
2017-06-11T11:32:49.671Z,31.42
2017-06-11T11:33:49.671Z,31.42
2017-06-11T11:34:49.368Z,31.41
2017-06-11T11:35:49.646Z,31.31
2017-06-11T11:36:49.653Z,31.18
2017-06-11T11:37:49.880Z,31.16
2017-06-11T11:38:49.632Z,31.2
2017-06-11T11:39:49.612Z,31.05
2017-06-11T11:40:49.601Z,31.05
2017-06-11T11:41:49.653Z,31.01
2017-06-11T11:42:49.578Z,31.03
2017-06-11T11:43:49.575Z,30.93
2017-06-11T11:44:49.558Z,30.96
2017-06-11T11:45:49.550Z,30.86
2017-06-11T11:46:49.542Z,30.81
2017-06-11T11:47:49.582Z,30.91
2017-06-11T11:48:49.522Z,30.85
2017-06-11T11:49:49.510Z,30.75
2017-06-11T11:50:49.201Z,30.82
2017-06-11T11:51:49.498Z,30.81
2017-06-11T11:52:49.479Z,30.91
2017-06-11T11:53:49.473Z,31
2017-06-11T11:54:49.460Z,30.96
2017-06-11T11:55:49.452Z,31.01
2017-06-11T11:56:49.148Z,31.05
2017-06-11T11:57:49.164Z,31.03
2017-06-11T11:58:49.475Z,30.98
2017-06-11T11:59:49.412Z,31.03
2017-06-11T12:00:49.109Z,31.15
2017-06-11T12:01:49.455Z,31.03
2017-06-11T12:02:49.390Z,30.98
2017-06-11T12:03:49.367Z,30.98
2017-06-11T12:04:49.353Z,30.94
2017-06-11T12:05:49.358Z,30.96
2017-06-11T12:06:49.343Z,31
2017-06-11T12:07:49.333Z,30.96
2017-06-11T12:08:49.325Z,30.82
2017-06-11T12:09:49.324Z,30.67
2017-06-11T12:10:49.301Z,30.6
2017-06-11T12:11:49.301Z,30.59
2017-06-11T12:12:49.285Z,30.67
2017-06-11T12:13:49.320Z,30.6
2017-06-11T12:14:49.259Z,30.64
2017-06-11T12:15:49.306Z,30.76
2017-06-11T12:16:49.231Z,30.7
2017-06-11T12:17:49.222Z,30.76
2017-06-11T12:18:49.213Z,30.68
2017-06-11T12:19:48.899Z,30.76
2017-06-11T12:20:49.191Z,30.72
2017-06-11T12:21:48.901Z,30.7
2017-06-11T12:22:49.186Z,30.67
2017-06-11T12:23:48.864Z,30.68
2017-06-11T12:24:49.167Z,30.64
2017-06-11T12:25:49.143Z,30.67
2017-06-11T12:26:49.130Z,30.64
2017-06-11T12:27:49.119Z,30.78
2017-06-11T12:28:49.110Z,30.82
2017-06-11T12:29:49.147Z,30.94
2017-06-11T12:30:49.093Z,30.85
2017-06-11T12:31:49.082Z,30.85
2017-06-11T12:32:48.770Z,30.83
2017-06-11T12:33:49.058Z,30.82
2017-06-11T12:34:49.048Z,30.86
2017-06-11T12:35:49.046Z,30.83
2017-06-11T12:36:49.026Z,30.81
2017-06-11T12:37:49.018Z,30.72
2017-06-11T12:38:49.004Z,30.86
2017-06-11T12:39:48.993Z,30.83
2017-06-11T12:40:49.034Z,30.7
2017-06-11T12:41:48.972Z,30.68
2017-06-11T12:42:48.962Z,30.73
2017-06-11T12:43:48.950Z,30.83
2017-06-11T12:44:48.645Z,30.73
2017-06-11T12:45:48.931Z,30.59
2017-06-11T12:46:48.915Z,30.38
2017-06-11T12:47:48.899Z,30.44
2017-06-11T12:48:48.906Z,30.53
2017-06-11T12:49:48.893Z,30.63
2017-06-11T12:50:48.587Z,30.64
2017-06-11T12:51:48.876Z,30.57
2017-06-11T12:52:48.859Z,30.79
2017-06-11T12:53:48.542Z,30.68
2017-06-11T12:54:48.538Z,30.7
2017-06-11T12:55:48.824Z,30.76
2017-06-11T12:56:48.820Z,30.83
2017-06-11T12:57:48.823Z,30.79